Terminal Aerodrome Forecast
Issued by NWS

Home | Current Version | Previous Version | Text Only | Print | Product List | Glossary On
Versions: 1 2 3 4 5 6 7 8 9 10 11 12 13 14 15 16 17
196
FTUS43 KABR 271139
TAFATY
TAF
KATY 271139Z 2712/2812 15006KT P6SM SCT110
     FM271600 15014KT P6SM SCT250
     FM271900 18020G28KT P6SM SCT250
     FM280400 18006KT P6SM SCT250 WS020/21035KT=

USA.gov is the U.S. government's official web portal to all federal, state and local government web resources and services.